createdAt,value
2018-03-26T12:31:59.762Z,1013.14
2018-03-26T12:32:12.395Z,1013.13
2018-03-26T12:32:24.997Z,1013.15
2018-03-26T12:32:37.648Z,1013.14
2018-03-26T12:32:50.214Z,1013.12
2018-03-26T12:33:02.874Z,1013.12
2018-03-26T12:33:15.458Z,1013.14
2018-03-26T12:33:28.118Z,1013.11
2018-03-26T12:33:40.663Z,1013.12
2018-03-26T12:33:53.237Z,1013.11
2018-03-26T12:34:05.840Z,1013.14
2018-03-26T12:34:18.451Z,1013.11
2018-03-26T12:34:31.046Z,1013.11
2018-03-26T12:34:43.662Z,1013.14
2018-03-26T12:34:56.257Z,1013.12
2018-03-26T12:35:08.874Z,1013.13
2018-03-26T12:35:21.495Z,1013.12
2018-03-26T12:35:34.087Z,1013.12
2018-03-26T12:35:46.686Z,1013.09
2018-03-26T12:35:59.286Z,1013.12
2018-03-26T12:36:11.900Z,1013.13
2018-03-26T12:36:24.495Z,1013.14
2018-03-26T12:36:37.088Z,1013.14
2018-03-26T12:36:49.686Z,1013.15
2018-03-26T12:37:02.299Z,1013.13
2018-03-26T12:37:14.913Z,1013.15
2018-03-26T12:37:27.509Z,1013.13
2018-03-26T12:37:40.104Z,1013.12
2018-03-26T12:37:52.725Z,1013.14
2018-03-26T12:38:05.411Z,1013.15
2018-03-26T12:38:18.012Z,1013.13
2018-03-26T12:38:30.611Z,1013.12
2018-03-26T12:38:43.217Z,1013.13
2018-03-26T12:38:56.027Z,1013.12
2018-03-26T12:39:08.654Z,1013.15
2018-03-26T12:39:21.298Z,1013.13
2018-03-26T12:39:34.094Z,1013.14
2018-03-26T12:39:46.726Z,1013.15
2018-03-26T12:39:59.336Z,1013.12
2018-03-26T12:40:11.926Z,1013.10
2018-03-26T12:40:24.526Z,1013.13
2018-03-26T12:40:37.176Z,1013.16
2018-03-26T12:40:49.816Z,1013.16
2018-03-26T12:41:02.435Z,1013.15
2018-03-26T12:41:15.062Z,1013.14
2018-03-26T12:41:27.736Z,1013.14
2018-03-26T12:41:40.367Z,1013.17
2018-03-26T12:41:52.969Z,1013.15
2018-03-26T12:42:05.563Z,1013.16
2018-03-26T12:42:18.157Z,1013.13
2018-03-26T12:42:30.755Z,1013.15
2018-03-26T12:42:43.370Z,1013.17
2018-03-26T12:42:55.977Z,1013.15
2018-03-26T12:43:08.583Z,1013.15
2018-03-26T12:43:21.178Z,1013.18
2018-03-26T12:43:33.792Z,1013.17
2018-03-26T12:43:46.455Z,1013.16
2018-03-26T12:43:59.083Z,1013.11
2018-03-26T12:44:11.700Z,1013.14
2018-03-26T12:44:24.300Z,1013.15
2018-03-26T12:44:36.899Z,1013.14
2018-03-26T12:44:49.605Z,1013.13
2018-03-26T12:45:02.509Z,1013.12
2018-03-26T12:45:15.124Z,1013.13
2018-03-26T12:45:27.784Z,1013.14
2018-03-26T12:45:40.402Z,1013.16
2018-03-26T12:45:53.025Z,1013.15
2018-03-26T12:46:05.627Z,1013.14
2018-03-26T12:46:18.383Z,1013.17
2018-03-26T12:46:30.920Z,1013.16
2018-03-26T12:46:43.518Z,1013.16
2018-03-26T12:46:56.119Z,1013.19
2018-03-26T12:47:08.777Z,1013.17
2018-03-26T12:47:21.331Z,1013.17
2018-03-26T12:47:33.931Z,1013.19
2018-03-26T12:47:46.564Z,1013.16
2018-03-26T12:47:59.150Z,1013.18
2018-03-26T12:48:11.965Z,1013.21
2018-03-26T12:48:24.564Z,1013.22
2018-03-26T12:48:37.157Z,1013.17
2018-03-26T12:48:49.751Z,1013.18
2018-03-26T12:49:02.461Z,1013.22
2018-03-26T12:49:15.094Z,1013.24
2018-03-26T12:49:27.686Z,1013.19
2018-03-26T12:49:40.285Z,1013.19
2018-03-26T12:49:52.903Z,1013.22
2018-03-26T12:50:05.517Z,1013.19
2018-03-26T12:50:18.131Z,1013.19
2018-03-26T12:50:30.719Z,1013.22
2018-03-26T12:50:43.318Z,1013.19
2018-03-26T12:50:55.937Z,1013.20
2018-03-26T12:51:08.534Z,1013.21
2018-03-26T12:51:21.154Z,1013.17
2018-03-26T12:51:33.768Z,1013.18
2018-03-26T12:51:46.364Z,1013.19
2018-03-26T12:51:59.015Z,1013.20
2018-03-26T12:52:11.639Z,1013.22
2018-03-26T12:52:24.457Z,1013.21
2018-03-26T12:52:37.104Z,1013.20
2018-03-26T12:52:49.914Z,1013.20
2018-03-26T12:53:02.586Z,1013.21
2018-03-26T12:53:15.230Z,1013.20
2018-03-26T12:53:27.840Z,1013.16
2018-03-26T12:53:40.487Z,1013.17
2018-03-26T12:53:53.088Z,1013.19
2018-03-26T12:54:05.700Z,1013.20
2018-03-26T12:54:18.301Z,1013.19
2018-03-26T12:54:30.935Z,1013.19
2018-03-26T12:54:43.577Z,1013.21
2018-03-26T12:54:56.179Z,1013.22
2018-03-26T12:55:08.769Z,1013.23
2018-03-26T12:55:21.409Z,1013.21
2018-03-26T12:55:34.031Z,1013.24
2018-03-26T12:55:46.644Z,1013.23
2018-03-26T12:55:59.288Z,1013.20
2018-03-26T12:56:11.917Z,1013.20
2018-03-26T12:56:24.528Z,1013.22
2018-03-26T12:56:37.122Z,1013.22
2018-03-26T12:56:49.718Z,1013.21
2018-03-26T12:57:02.313Z,1013.20
2018-03-26T12:57:14.910Z,1013.23
2018-03-26T12:57:27.505Z,1013.20
2018-03-26T12:57:40.127Z,1013.20
2018-03-26T12:57:52.714Z,1013.19
2018-03-26T12:58:05.309Z,1013.18
2018-03-26T12:58:17.983Z,1013.16
2018-03-26T12:58:30.619Z,1013.16
2018-03-26T12:58:43.218Z,1013.13
2018-03-26T12:58:56.037Z,1013.11
2018-03-26T12:59:08.629Z,1013.12
2018-03-26T12:59:21.259Z,1013.09
2018-03-26T12:59:33.878Z,1013.12
2018-03-26T12:59:46.480Z,1013.07
2018-03-26T12:59:59.141Z,1013.09
2018-03-26T13:00:11.717Z,1013.08
2018-03-26T13:00:24.313Z,1013.10
2018-03-26T13:00:36.930Z,1013.08
2018-03-26T13:00:49.523Z,1013.06
2018-03-26T13:01:02.117Z,1013.06
2018-03-26T13:01:14.714Z,1013.04
2018-03-26T13:01:27.367Z,1013.04
2018-03-26T13:01:39.960Z,1013.05
2018-03-26T13:01:52.584Z,1013.05
2018-03-26T13:02:05.170Z,1013.05
2018-03-26T13:02:17.764Z,1013.05
2018-03-26T13:02:30.360Z,1013.04
2018-03-26T13:02:42.978Z,1013.04
2018-03-26T13:02:55.585Z,1013.00
2018-03-26T13:03:08.193Z,1013.04
2018-03-26T13:03:20.805Z,1013.02
2018-03-26T13:03:33.406Z,1013.05
2018-03-26T13:03:45.998Z,1013.01
2018-03-26T13:03:58.660Z,1013.01
2018-03-26T13:04:11.322Z,1013.01
2018-03-26T13:04:23.916Z,1013.00
2018-03-26T13:04:36.512Z,1012.98
2018-03-26T13:04:49.109Z,1013.02
2018-03-26T13:05:01.707Z,1012.95
2018-03-26T13:05:14.295Z,1012.98
2018-03-26T13:05:26.907Z,1012.97
2018-03-26T13:05:39.504Z,1012.95
2018-03-26T13:05:52.101Z,1012.95
2018-03-26T13:06:04.712Z,1012.97
2018-03-26T13:06:17.311Z,1012.94
2018-03-26T13:06:29.903Z,1012.98
2018-03-26T13:06:42.497Z,1012.95
2018-03-26T13:06:55.093Z,1012.91
2018-03-26T13:07:07.707Z,1012.89
2018-03-26T13:07:20.400Z,1012.90
2018-03-26T13:07:33.010Z,1012.88
2018-03-26T13:07:45.627Z,1012.88
2018-03-26T13:07:58.207Z,1012.88
2018-03-26T13:08:10.823Z,1012.86
2018-03-26T13:08:23.410Z,1012.88
2018-03-26T13:08:36.004Z,1012.88
2018-03-26T13:08:48.607Z,1012.88
2018-03-26T13:09:01.202Z,1012.86
2018-03-26T13:09:13.797Z,1012.87
2018-03-26T13:09:26.389Z,1012.86
2018-03-26T13:09:38.980Z,1012.84
2018-03-26T13:09:51.579Z,1012.84
2018-03-26T13:10:04.196Z,1012.85
2018-03-26T13:10:16.816Z,1012.81
2018-03-26T13:10:29.429Z,1012.84
2018-03-26T13:10:42.023Z,1012.86
2018-03-26T13:10:54.617Z,1012.83
2018-03-26T13:11:07.214Z,1012.83
2018-03-26T13:11:19.832Z,1012.78
2018-03-26T13:11:32.426Z,1012.81
2018-03-26T13:11:45.021Z,1012.79
2018-03-26T13:11:57.617Z,1012.80
2018-03-26T13:12:10.205Z,1012.80
2018-03-26T13:12:22.806Z,1012.81
2018-03-26T13:12:35.420Z,1012.82
2018-03-26T13:12:48.037Z,1012.78
2018-03-26T13:13:00.633Z,1012.78
2018-03-26T13:13:13.226Z,1012.80
2018-03-26T13:13:25.826Z,1012.77
2018-03-26T13:13:38.416Z,1012.79
2018-03-26T13:13:51.057Z,1012.79
2018-03-26T13:14:03.682Z,1012.79
2018-03-26T13:14:16.347Z,1012.76
2018-03-26T13:14:28.923Z,1012.80
2018-03-26T13:14:41.511Z,1012.77
2018-03-26T13:14:54.111Z,1012.78
2018-03-26T13:15:06.706Z,1012.78
2018-03-26T13:15:19.326Z,1012.76
2018-03-26T13:15:31.934Z,1012.80
2018-03-26T13:15:44.537Z,1012.78
2018-03-26T13:15:57.218Z,1012.77
2018-03-26T13:16:09.980Z,1012.79
2018-03-26T13:16:22.550Z,1012.78
2018-03-26T13:16:35.145Z,1012.81
2018-03-26T13:16:47.761Z,1012.78
2018-03-26T13:17:00.415Z,1012.78
2018-03-26T13:17:13.018Z,1012.82
2018-03-26T13:17:25.605Z,1012.78
2018-03-26T13:17:38.290Z,1012.78
2018-03-26T13:17:50.930Z,1012.78
2018-03-26T13:18:03.622Z,1012.77
2018-03-26T13:18:16.431Z,1012.79
2018-03-26T13:18:29.012Z,1012.79
2018-03-26T13:18:41.605Z,1012.81
2018-03-26T13:18:54.201Z,1012.83
2018-03-26T13:19:06.794Z,1012.83
2018-03-26T13:19:19.389Z,1012.84
2018-03-26T13:19:31.986Z,1012.81
2018-03-26T13:19:44.578Z,1012.84
2018-03-26T13:19:57.151Z,1012.81
2018-03-26T13:20:09.749Z,1012.83
2018-03-26T13:20:22.340Z,1012.88
2018-03-26T13:20:34.933Z,1012.86
2018-03-26T13:20:47.526Z,1012.87
2018-03-26T13:21:00.175Z,1012.87
2018-03-26T13:21:12.790Z,1012.86
2018-03-26T13:21:25.386Z,1012.88
2018-03-26T13:21:37.978Z,1012.85
2018-03-26T13:21:50.575Z,1012.87
2018-03-26T13:22:03.162Z,1012.88
2018-03-26T13:22:15.753Z,1012.85
2018-03-26T13:22:28.351Z,1012.87
2018-03-26T13:22:40.944Z,1012.88
2018-03-26T13:22:53.543Z,1012.89
2018-03-26T13:23:06.212Z,1012.88
2018-03-26T13:23:18.824Z,1012.88
2018-03-26T13:23:31.418Z,1012.89
2018-03-26T13:23:44.000Z,1012.88
2018-03-26T13:23:56.620Z,1012.90
2018-03-26T13:24:09.214Z,1012.90
2018-03-26T13:24:21.832Z,1012.87
2018-03-26T13:24:34.434Z,1012.87
2018-03-26T13:24:47.041Z,1012.89
2018-03-26T13:24:59.635Z,1012.87
2018-03-26T13:25:12.231Z,1012.89
2018-03-26T13:25:24.884Z,1012.88
2018-03-26T13:25:37.479Z,1012.89
2018-03-26T13:25:50.311Z,1012.90
2018-03-26T13:26:02.900Z,1012.90
2018-03-26T13:26:15.496Z,1012.90
2018-03-26T13:26:28.139Z,1012.89
2018-03-26T13:26:40.736Z,1012.87
2018-03-26T13:26:53.332Z,1012.92
2018-03-26T13:27:05.955Z,1012.91
2018-03-26T13:27:18.546Z,1012.91
2018-03-26T13:27:31.163Z,1012.90
2018-03-26T13:27:43.756Z,1012.92
2018-03-26T13:27:56.357Z,1012.92
2018-03-26T13:28:08.976Z,1012.93
2018-03-26T13:28:21.547Z,1012.92
2018-03-26T13:28:34.163Z,1012.88
2018-03-26T13:28:46.755Z,1012.92
2018-03-26T13:28:59.353Z,1012.92
2018-03-26T13:29:11.945Z,1012.90
2018-03-26T13:29:24.542Z,1012.93
2018-03-26T13:29:37.160Z,1012.94
2018-03-26T13:29:49.778Z,1012.90
2018-03-26T13:30:02.373Z,1012.97
2018-03-26T13:30:14.972Z,1012.93
2018-03-26T13:30:27.588Z,1012.90
2018-03-26T13:30:40.181Z,1012.94
2018-03-26T13:30:52.769Z,1012.94
2018-03-26T13:31:05.412Z,1012.96
2018-03-26T13:31:18.009Z,1012.91
2018-03-26T13:31:30.601Z,1012.90
2018-03-26T13:31:43.195Z,1012.93
2018-03-26T13:31:55.788Z,1012.94
2018-03-26T13:32:08.382Z,1012.93
2018-03-26T13:32:20.997Z,1012.94
2018-03-26T13:32:33.586Z,1012.93
2018-03-26T13:32:46.204Z,1012.96
2018-03-26T13:32:59.007Z,1012.94
2018-03-26T13:33:11.616Z,1012.96
2018-03-26T13:33:24.282Z,1012.97
2018-03-26T13:33:36.880Z,1012.96
2018-03-26T13:33:49.498Z,1012.95
2018-03-26T13:34:02.065Z,1012.94
2018-03-26T13:34:14.664Z,1012.97
2018-03-26T13:34:27.284Z,1012.96
2018-03-26T13:34:39.876Z,1012.99
2018-03-26T13:34:52.460Z,1012.97
2018-03-26T13:35:05.053Z,1012.97
2018-03-26T13:35:17.653Z,1012.98
2018-03-26T13:35:30.264Z,1012.98
2018-03-26T13:35:42.907Z,1012.96
2018-03-26T13:35:55.508Z,1013.00
2018-03-26T13:36:08.117Z,1012.97
2018-03-26T13:36:20.719Z,1012.97
2018-03-26T13:36:33.347Z,1012.96
2018-03-26T13:36:45.966Z,1012.98
2018-03-26T13:36:58.958Z,1013.00
2018-03-26T13:37:11.519Z,1012.98
2018-03-26T13:37:24.111Z,1013.00
2018-03-26T13:37:36.710Z,1013.00
2018-03-26T13:37:49.305Z,1012.95
2018-03-26T13:38:01.922Z,1012.97
2018-03-26T13:38:14.529Z,1012.96
2018-03-26T13:38:27.156Z,1013.02
2018-03-26T13:38:39.740Z,1013.00
2018-03-26T13:38:52.395Z,1012.95
2018-03-26T13:39:05.002Z,1012.99
2018-03-26T13:39:17.617Z,1012.98
2018-03-26T13:39:30.215Z,1012.98
2018-03-26T13:39:42.825Z,1013.02
2018-03-26T13:39:55.425Z,1013.00
2018-03-26T13:40:08.019Z,1013.02
2018-03-26T13:40:20.614Z,1012.99
2018-03-26T13:40:33.231Z,1013.03
2018-03-26T13:40:45.822Z,1013.00
2018-03-26T13:40:58.410Z,1013.03
2018-03-26T13:41:11.091Z,1013.06
2018-03-26T13:41:23.685Z,1013.02
2018-03-26T13:41:36.283Z,1013.06
2018-03-26T13:41:48.886Z,1013.04
2018-03-26T13:42:01.469Z,1013.01
2018-03-26T13:42:14.068Z,1013.01
2018-03-26T13:42:26.680Z,1013.05
2018-03-26T13:42:39.278Z,1013.04
2018-03-26T13:42:51.865Z,1013.00
2018-03-26T13:43:04.460Z,1012.99
2018-03-26T13:43:17.075Z,1013.03
2018-03-26T13:43:29.674Z,1013.03
2018-03-26T13:43:42.294Z,1013.01
2018-03-26T13:43:54.910Z,1013.02
2018-03-26T13:44:07.501Z,1013.05
2018-03-26T13:44:20.098Z,1013.03
2018-03-26T13:44:32.694Z,1013.00
2018-03-26T13:44:45.284Z,1013.01
2018-03-26T13:44:57.883Z,1013.01
2018-03-26T13:45:10.500Z,1013.05
2018-03-26T13:45:23.095Z,1013.02
2018-03-26T13:45:35.689Z,1013.02
2018-03-26T13:45:48.283Z,1013.07
2018-03-26T13:46:00.902Z,1013.06
2018-03-26T13:46:13.521Z,1013.02
2018-03-26T13:46:26.115Z,1013.03
2018-03-26T13:46:38.705Z,1013.03
2018-03-26T13:46:51.304Z,1013.05
2018-03-26T13:47:03.923Z,1013.00
2018-03-26T13:47:16.512Z,1013.05
2018-03-26T13:47:29.106Z,1013.02
2018-03-26T13:47:41.697Z,1013.00
2018-03-26T13:47:54.297Z,1013.01
2018-03-26T13:48:06.914Z,1013.00
2018-03-26T13:48:19.507Z,1013.02
2018-03-26T13:48:32.099Z,1013.03
2018-03-26T13:48:44.697Z,1013.03
2018-03-26T13:48:57.293Z,1013.00
2018-03-26T13:49:09.893Z,1012.99
2018-03-26T13:49:22.483Z,1013.02
2018-03-26T13:49:35.080Z,1013.03
2018-03-26T13:49:47.677Z,1012.98
2018-03-26T13:50:00.274Z,1013.02
2018-03-26T13:50:12.861Z,1012.97
2018-03-26T13:50:25.459Z,1012.99
2018-03-26T13:50:38.113Z,1012.97
2018-03-26T13:50:50.733Z,1013.02
2018-03-26T13:51:03.377Z,1013.01
2018-03-26T13:51:15.975Z,1013.01
2018-03-26T13:51:28.628Z,1013.03
2018-03-26T13:51:41.260Z,1013.00
2018-03-26T13:51:53.892Z,1013.02
2018-03-26T13:52:06.500Z,1013.06
2018-03-26T13:52:19.148Z,1013.02
2018-03-26T13:52:31.813Z,1013.02
2018-03-26T13:52:44.527Z,1013.02
2018-03-26T13:52:57.136Z,1013.01
2018-03-26T13:53:09.942Z,1013.02
2018-03-26T13:53:22.800Z,1013.03
2018-03-26T13:53:35.482Z,1013.00
2018-03-26T13:53:48.173Z,1013.02
2018-03-26T13:54:00.856Z,1013.02
2018-03-26T13:54:13.515Z,1013.04
2018-03-26T13:54:26.129Z,1013.00
2018-03-26T13:54:38.732Z,1013.04
2018-03-26T13:54:51.367Z,1013.00
2018-03-26T13:55:03.970Z,1013.05
2018-03-26T13:55:16.577Z,1013.05
2018-03-26T13:55:29.176Z,1013.02
2018-03-26T13:55:41.792Z,1013.02
2018-03-26T13:55:54.387Z,1013.04
2018-03-26T13:56:07.003Z,1013.06
2018-03-26T13:56:19.655Z,1013.03
2018-03-26T13:56:32.314Z,1013.04
2018-03-26T13:56:44.939Z,1013.02
2018-03-26T13:56:57.539Z,1013.03
2018-03-26T13:57:10.205Z,1013.03
2018-03-26T13:57:22.816Z,1013.06
2018-03-26T13:57:35.414Z,1013.05
2018-03-26T13:57:48.009Z,1013.05
2018-03-26T13:58:00.606Z,1013.03
2018-03-26T13:58:13.251Z,1013.06
2018-03-26T13:58:25.877Z,1013.06
2018-03-26T13:58:38.529Z,1013.05
2018-03-26T13:58:51.065Z,1013.04
2018-03-26T13:59:03.710Z,1013.05
2018-03-26T13:59:16.270Z,1013.06
2018-03-26T13:59:28.922Z,1013.09
2018-03-26T13:59:41.734Z,1013.11
2018-03-26T13:59:54.329Z,1013.11
2018-03-26T14:00:06.927Z,1013.07
2018-03-26T14:00:19.519Z,1013.08
2018-03-26T14:00:32.153Z,1013.08
2018-03-26T14:00:44.843Z,1013.08
2018-03-26T14:00:57.495Z,1013.10
2018-03-26T14:01:10.129Z,1013.12
2018-03-26T14:01:22.750Z,1013.10
2018-03-26T14:01:35.385Z,1013.08
2018-03-26T14:01:48.017Z,1013.14
2018-03-26T14:02:00.632Z,1013.11
2018-03-26T14:02:13.272Z,1013.17
2018-03-26T14:02:25.877Z,1013.16
2018-03-26T14:02:38.486Z,1013.14
2018-03-26T14:02:51.082Z,1013.09
2018-03-26T14:03:03.732Z,1013.11
2018-03-26T14:03:16.356Z,1013.10
2018-03-26T14:03:28.990Z,1013.14
2018-03-26T14:03:41.652Z,1013.14
2018-03-26T14:03:54.271Z,1013.12
2018-03-26T14:04:06.930Z,1013.14
2018-03-26T14:04:19.576Z,1013.08
2018-03-26T14:04:32.238Z,1013.07
2018-03-26T14:04:44.871Z,1013.10
2018-03-26T14:04:57.492Z,1013.09
2018-03-26T14:05:10.108Z,1013.11
2018-03-26T14:05:22.724Z,1013.08
2018-03-26T14:05:35.320Z,1013.13
2018-03-26T14:05:47.941Z,1013.17
2018-03-26T14:06:00.529Z,1013.13
2018-03-26T14:06:13.124Z,1013.11
2018-03-26T14:06:25.731Z,1013.13
2018-03-26T14:06:38.339Z,1013.10
2018-03-26T14:06:50.957Z,1013.11
2018-03-26T14:07:03.557Z,1013.15
2018-03-26T14:07:16.173Z,1013.08
2018-03-26T14:07:28.766Z,1013.09
2018-03-26T14:07:41.411Z,1013.13
2018-03-26T14:07:54.007Z,1013.16
2018-03-26T14:08:06.600Z,1013.07
2018-03-26T14:08:19.247Z,1013.10
2018-03-26T14:08:31.855Z,1013.08
2018-03-26T14:08:44.451Z,1013.10
2018-03-26T14:08:57.068Z,1013.14
2018-03-26T14:09:09.663Z,1013.11
2018-03-26T14:09:22.305Z,1013.11
2018-03-26T14:09:34.909Z,1013.14
2018-03-26T14:09:47.502Z,1013.14
2018-03-26T14:10:00.124Z,1013.13
2018-03-26T14:10:12.728Z,1013.13
2018-03-26T14:10:25.309Z,1013.08
2018-03-26T14:10:37.904Z,1013.11
2018-03-26T14:10:50.495Z,1013.14
2018-03-26T14:11:03.089Z,1013.10
2018-03-26T14:11:15.686Z,1013.10
2018-03-26T14:11:28.282Z,1013.12
2018-03-26T14:11:40.928Z,1013.11
2018-03-26T14:11:53.491Z,1013.11
2018-03-26T14:12:06.115Z,1013.13
2018-03-26T14:12:18.710Z,1013.09
2018-03-26T14:12:31.325Z,1013.11
2018-03-26T14:12:43.926Z,1013.11
2018-03-26T14:12:56.545Z,1013.13
2018-03-26T14:13:09.138Z,1013.13
2018-03-26T14:13:21.729Z,1013.11
2018-03-26T14:13:34.329Z,1013.10
2018-03-26T14:13:47.007Z,1013.12
2018-03-26T14:13:59.539Z,1013.08
2018-03-26T14:14:12.131Z,1013.09
2018-03-26T14:14:24.725Z,1013.07
2018-03-26T14:14:37.342Z,1013.08
2018-03-26T14:14:49.938Z,1013.12
2018-03-26T14:15:02.554Z,1013.09
2018-03-26T14:15:15.150Z,1013.08
2018-03-26T14:15:27.767Z,1013.10
2018-03-26T14:15:40.383Z,1013.05
2018-03-26T14:15:52.977Z,1013.05
2018-03-26T14:16:05.574Z,1013.08
2018-03-26T14:16:18.171Z,1013.09
2018-03-26T14:16:30.765Z,1013.04
2018-03-26T14:16:43.357Z,1013.08
2018-03-26T14:16:55.951Z,1013.08
2018-03-26T14:17:08.554Z,1013.04
2018-03-26T14:17:21.146Z,1013.06
2018-03-26T14:17:33.763Z,1013.02
2018-03-26T14:17:46.407Z,1013.05
2018-03-26T14:17:59.009Z,1013.06
2018-03-26T14:18:11.620Z,1013.06
2018-03-26T14:18:24.252Z,1013.08
2018-03-26T14:18:36.816Z,1013.03
2018-03-26T14:18:49.412Z,1013.00
2018-03-26T14:19:02.005Z,1013.00
2018-03-26T14:19:14.624Z,1012.99
2018-03-26T14:19:27.244Z,1013.01
2018-03-26T14:19:39.842Z,1013.03
2018-03-26T14:19:52.455Z,1012.99
2018-03-26T14:20:05.058Z,1013.00
2018-03-26T14:20:17.668Z,1012.99
2018-03-26T14:20:30.262Z,1013.02
2018-03-26T14:20:42.857Z,1013.00
2018-03-26T14:20:55.458Z,1013.00
2018-03-26T14:21:08.051Z,1013.01
2018-03-26T14:21:20.649Z,1012.97
2018-03-26T14:21:33.319Z,1013.01
2018-03-26T14:21:45.930Z,1013.00
2018-03-26T14:21:58.524Z,1013.02
2018-03-26T14:22:11.120Z,1012.98
2018-03-26T14:22:23.751Z,1012.99
2018-03-26T14:22:36.406Z,1012.97
2018-03-26T14:22:49.008Z,1013.02
2018-03-26T14:23:01.619Z,1012.97
2018-03-26T14:23:14.219Z,1013.00
2018-03-26T14:23:26.809Z,1013.02
2018-03-26T14:23:39.399Z,1013.00
2018-03-26T14:23:51.994Z,1013.00
2018-03-26T14:24:04.657Z,1013.00
2018-03-26T14:24:17.211Z,1013.00
2018-03-26T14:24:29.802Z,1013.00
2018-03-26T14:24:42.398Z,1013.00
2018-03-26T14:24:55.017Z,1013.00
2018-03-26T14:25:07.660Z,1012.97
2018-03-26T14:25:20.253Z,1013.01
2018-03-26T14:25:32.869Z,1013.00
2018-03-26T14:25:45.461Z,1012.97
2018-03-26T14:25:58.077Z,1012.97
2018-03-26T14:26:10.672Z,1013.03
2018-03-26T14:26:23.267Z,1013.00
2018-03-26T14:26:35.891Z,1012.97
2018-03-26T14:26:48.507Z,1012.99
2018-03-26T14:27:01.099Z,1013.03
2018-03-26T14:27:13.695Z,1012.97
2018-03-26T14:27:26.289Z,1012.96
2018-03-26T14:27:38.906Z,1012.95
2018-03-26T14:27:51.501Z,1012.99
2018-03-26T14:28:04.095Z,1012.95
2018-03-26T14:28:16.693Z,1013.02
2018-03-26T14:28:29.343Z,1013.02
2018-03-26T14:28:41.958Z,1013.09
2018-03-26T14:28:54.574Z,1012.99
2018-03-26T14:29:07.168Z,1012.99
2018-03-26T14:29:19.767Z,1013.04
2018-03-26T14:29:32.445Z,1012.99
2018-03-26T14:29:45.004Z,1013.00
2018-03-26T14:29:57.604Z,1013.03
2018-03-26T14:30:10.197Z,1013.02
2018-03-26T14:30:22.793Z,1013.02
2018-03-26T14:30:35.438Z,1013.04
2018-03-26T14:30:48.037Z,1013.04
2018-03-26T14:31:00.646Z,1013.02
2018-03-26T14:31:13.226Z,1013.03
2018-03-26T14:31:25.821Z,1013.01
2018-03-26T14:31:38.409Z,1013.01
2018-03-26T14:31:51.041Z,1013.01
2018-03-26T14:32:03.628Z,1013.01
2018-03-26T14:32:16.229Z,1012.99
2018-03-26T14:32:28.827Z,1013.05
2018-03-26T14:32:41.421Z,1013.02
2018-03-26T14:32:54.012Z,1013.02
2018-03-26T14:33:06.605Z,1013.00
2018-03-26T14:33:19.200Z,1013.03
2018-03-26T14:33:31.828Z,1013.02
2018-03-26T14:33:44.634Z,1013.09
2018-03-26T14:33:57.234Z,1013.04
2018-03-26T14:34:09.831Z,1013.03
2018-03-26T14:34:22.427Z,1013.07
2018-03-26T14:34:35.068Z,1013.06
2018-03-26T14:34:47.663Z,1013.01
2018-03-26T14:35:00.261Z,1013.01
2018-03-26T14:35:12.853Z,1013.05
2018-03-26T14:35:25.448Z,1013.02
2018-03-26T14:35:38.044Z,1013.02
2018-03-26T14:35:50.658Z,1013.01
2018-03-26T14:36:03.255Z,1013.03
2018-03-26T14:36:15.857Z,1012.98
2018-03-26T14:36:28.443Z,1013.00
2018-03-26T14:36:41.043Z,1012.99
2018-03-26T14:36:53.638Z,1012.99
2018-03-26T14:37:06.299Z,1013.01
2018-03-26T14:37:18.898Z,1013.01
2018-03-26T14:37:31.513Z,1012.97
2018-03-26T14:37:44.112Z,1012.98
2018-03-26T14:37:56.710Z,1012.98
2018-03-26T14:38:09.309Z,1013.02
2018-03-26T14:38:21.904Z,1013.05
2018-03-26T14:38:34.526Z,1013.02
2018-03-26T14:38:47.140Z,1013.00
2018-03-26T14:38:59.731Z,1013.01
2018-03-26T14:39:12.325Z,1012.99
2018-03-26T14:39:24.924Z,1013.02
2018-03-26T14:39:37.508Z,1013.01
2018-03-26T14:39:50.145Z,1013.02
2018-03-26T14:40:02.737Z,1013.00
2018-03-26T14:40:15.328Z,1012.98
2018-03-26T14:40:27.923Z,1013.01
2018-03-26T14:40:40.516Z,1013.01
2018-03-26T14:40:53.130Z,1013.01
2018-03-26T14:41:05.745Z,1012.99
2018-03-26T14:41:18.343Z,1013.00
2018-03-26T14:41:30.935Z,1013.01
2018-03-26T14:41:43.530Z,1013.04
2018-03-26T14:41:56.128Z,1013.00
2018-03-26T14:42:08.717Z,1012.99
2018-03-26T14:42:21.311Z,1013.00
2018-03-26T14:42:33.903Z,1013.01
2018-03-26T14:42:46.501Z,1012.98
2018-03-26T14:42:59.095Z,1013.03
2018-03-26T14:43:11.719Z,1012.96
2018-03-26T14:43:24.318Z,1012.99
2018-03-26T14:43:36.914Z,1012.96
2018-03-26T14:43:49.502Z,1013.00
2018-03-26T14:44:02.116Z,1013.00
2018-03-26T14:44:14.728Z,1013.00
2018-03-26T14:44:27.325Z,1012.97
2018-03-26T14:44:39.919Z,1013.00
2018-03-26T14:44:52.510Z,1012.99
2018-03-26T14:45:05.104Z,1012.99
2018-03-26T14:45:17.701Z,1013.00
2018-03-26T14:45:30.292Z,1013.01
2018-03-26T14:45:42.894Z,1013.01
2018-03-26T14:45:55.468Z,1013.01
2018-03-26T14:46:08.054Z,1013.02
2018-03-26T14:46:20.647Z,1013.02
2018-03-26T14:46:33.259Z,1013.02
2018-03-26T14:46:45.852Z,1013.02
2018-03-26T14:46:58.445Z,1013.00
2018-03-26T14:47:11.034Z,1013.03
2018-03-26T14:47:23.650Z,1012.99
2018-03-26T14:47:36.263Z,1013.00
2018-03-26T14:47:48.861Z,1013.02
2018-03-26T14:48:01.455Z,1013.03
2018-03-26T14:48:14.058Z,1013.05
2018-03-26T14:48:26.644Z,1013.03
2018-03-26T14:48:39.239Z,1013.04
2018-03-26T14:48:51.834Z,1013.03
2018-03-26T14:49:04.427Z,1013.05
2018-03-26T14:49:17.022Z,1013.07
2018-03-26T14:49:29.615Z,1013.08
2018-03-26T14:49:42.259Z,1013.04
2018-03-26T14:49:54.859Z,1013.03
2018-03-26T14:50:07.448Z,1013.03
2018-03-26T14:50:20.064Z,1013.01
2018-03-26T14:50:32.657Z,1013.02
2018-03-26T14:50:45.252Z,1013.02
2018-03-26T14:50:57.848Z,1013.02
2018-03-26T14:51:10.466Z,1013.03
2018-03-26T14:51:23.080Z,1013.02
2018-03-26T14:51:35.676Z,1013.01
2018-03-26T14:51:48.269Z,1013.05
2018-03-26T14:52:00.867Z,1013.06
2018-03-26T14:52:13.467Z,1013.01
2018-03-26T14:52:26.060Z,1013.04
2018-03-26T14:52:38.660Z,1013.01
2018-03-26T14:52:51.255Z,1013.04
2018-03-26T14:53:03.852Z,1013.02
2018-03-26T14:53:16.446Z,1013.04
2018-03-26T14:53:29.035Z,1013.00
2018-03-26T14:53:41.635Z,1013.00
2018-03-26T14:53:54.252Z,1013.02
2018-03-26T14:54:06.913Z,1013.01
2018-03-26T14:54:19.510Z,1013.05
2018-03-26T14:54:32.109Z,1013.09
2018-03-26T14:54:44.723Z,1013.03
2018-03-26T14:54:57.320Z,1013.05
2018-03-26T14:55:09.915Z,1013.00
2018-03-26T14:55:22.551Z,1013.04
2018-03-26T14:55:35.100Z,1013.03
2018-03-26T14:55:47.699Z,1013.05
2018-03-26T14:56:00.316Z,1013.05
2018-03-26T14:56:12.934Z,1013.05
2018-03-26T14:56:25.545Z,1013.03
2018-03-26T14:56:38.146Z,1013.00
2018-03-26T14:56:50.732Z,1013.04
2018-03-26T14:57:03.328Z,1013.03
2018-03-26T14:57:15.920Z,1013.05
2018-03-26T14:57:28.513Z,1013.10
2018-03-26T14:57:41.108Z,1013.05
2018-03-26T14:57:53.700Z,1013.03
2018-03-26T14:58:06.315Z,1013.02
2018-03-26T14:58:18.980Z,1013.04
2018-03-26T14:58:31.570Z,1013.03
2018-03-26T14:58:44.167Z,1013.03
2018-03-26T14:58:56.761Z,1013.05
2018-03-26T14:59:09.373Z,1013.01
2018-03-26T14:59:21.974Z,1013.03
2018-03-26T14:59:34.562Z,1013.00
2018-03-26T14:59:47.155Z,1013.00
2018-03-26T14:59:59.748Z,1013.02
2018-03-26T15:00:12.346Z,1013.09
2018-03-26T15:00:24.959Z,1013.03
2018-03-26T15:00:37.560Z,1013.01
2018-03-26T15:00:50.175Z,1013.01
2018-03-26T15:01:02.875Z,1013.04
2018-03-26T15:01:15.460Z,1012.97
2018-03-26T15:01:28.061Z,1013.01
2018-03-26T15:01:40.671Z,1012.97
2018-03-26T15:01:53.265Z,1012.98
2018-03-26T15:02:05.858Z,1012.98
2018-03-26T15:02:18.448Z,1012.99
2018-03-26T15:02:31.043Z,1013.00
2018-03-26T15:02:44.001Z,1013.00
2018-03-26T15:02:56.605Z,1012.98
2018-03-26T15:03:09.220Z,1012.97
2018-03-26T15:03:21.816Z,1013.02
2018-03-26T15:03:34.408Z,1012.98
2018-03-26T15:03:47.053Z,1012.98
2018-03-26T15:03:59.643Z,1012.99
2018-03-26T15:04:12.233Z,1012.98
2018-03-26T15:04:24.832Z,1012.97